Time;durP1;ratioP1;P1;durP2;ratioP2;P2;SDS_P1;SDS_P2;PMS_P1;PMS_P2;Temp;Humidity;BMP_temperature;BMP_pressure;BME280_temperature;BME280_humidity;BME280_pressure;Samples;Min_cycle;Max_cycle;Signal;HPM_P1;HPM_P2
2023/06/14 00:04:32;;;;;;;4.95;2.40;;;22.90;58.00;;;;;;10481694;28;20020;-69
2023/06/14 00:09:33;;;;;;;2.70;1.95;;;22.90;58.00;;;;;;10476574;28;20028;-69
2023/06/14 00:14:33;;;;;;;2.70;2.00;;;22.80;58.00;;;;;;10481854;28;20032;-69
2023/06/14 00:19:36;;;;;;;3.10;2.17;;;22.80;58.00;;;;;;10478658;28;20025;-70
2023/06/14 00:24:36;;;;;;;2.97;2.20;;;22.80;58.10;;;;;;10478473;28;20098;-70
2023/06/14 00:29:37;;;;;;;5.05;2.35;;;22.70;58.00;;;;;;10480724;28;21024;-69
2023/06/14 00:34:38;;;;;;;3.13;1.80;;;22.80;58.10;;;;;;10483606;28;20043;-69
2023/06/14 00:39:39;;;;;;;3.95;2.20;;;22.70;58.00;;;;;;10473112;28;20074;-69
2023/06/14 00:44:40;;;;;;;3.22;1.98;;;22.60;58.00;;;;;;10476924;28;20480;-69
2023/06/14 00:49:41;;;;;;;4.55;2.25;;;22.60;58.10;;;;;;10480287;28;20514;-69
2023/06/14 00:54:43;;;;;;;3.80;2.15;;;22.50;58.00;;;;;;10478920;28;20016;-70
2023/06/14 00:59:46;;;;;;;3.88;2.25;;;22.50;58.00;;;;;;10494999;28;20116;-69
2023/06/14 01:04:49;;;;;;;3.80;2.22;;;22.50;58.10;;;;;;10479566;28;20031;-69
2023/06/14 01:10:14;;;;;;;3.78;1.92;;;22.40;58.00;;;;;;10475581;28;20059;-70
2023/06/14 01:15:16;;;;;;;3.47;2.10;;;22.40;58.10;;;;;;10478403;28;20136;-69
2023/06/14 01:20:17;;;;;;;3.67;1.80;;;22.40;58.10;;;;;;10478695;28;20036;-69
2023/06/14 01:25:20;;;;;;;1.92;1.70;;;22.30;58.10;;;;;;10479735;28;20024;-69
2023/06/14 01:30:22;;;;;;;5.18;2.40;;;22.40;58.20;;;;;;10470289;28;20025;-69
2023/06/14 01:35:23;;;;;;;4.82;2.30;;;22.30;58.20;;;;;;10473854;28;20485;-69
2023/06/14 01:40:24;;;;;;;2.58;1.92;;;22.20;58.20;;;;;;10478758;28;20040;-69
2023/06/14 01:45:25;;;;;;;2.28;1.67;;;22.20;58.20;;;;;;10473168;28;20033;-69
2023/06/14 01:50:31;;;;;;;2.97;2.22;;;22.20;58.30;;;;;;10473626;28;20395;-69
2023/06/14 01:55:37;;;;;;;2.80;1.85;;;22.10;58.30;;;;;;10483502;28;20016;-70
2023/06/14 02:00:37;;;;;;;3.63;2.00;;;22.10;58.30;;;;;;10484735;28;20178;-69
2023/06/14 02:05:39;;;;;;;4.85;1.73;;;22.00;58.30;;;;;;10485912;28;20293;-69
2023/06/14 02:10:40;;;;;;;3.60;1.80;;;22.00;58.40;;;;;;10483978;28;20028;-69
2023/06/14 02:15:43;;;;;;;5.82;2.03;;;22.00;58.30;;;;;;10489626;28;20500;-70
2023/06/14 02:20:44;;;;;;;2.63;1.77;;;21.90;58.40;;;;;;10484642;28;20024;-69
2023/06/14 02:25:45;;;;;;;1.77;1.52;;;21.90;58.50;;;;;;10482796;28;20032;-70
2023/06/14 02:30:46;;;;;;;4.20;1.83;;;21.90;58.50;;;;;;10488998;28;20035;-69
2023/06/14 02:35:47;;;;;;;2.25;1.73;;;21.80;58.50;;;;;;10483662;28;20021;-69
2023/06/14 02:40:48;;;;;;;3.30;1.73;;;21.80;58.50;;;;;;10484803;28;20051;-69
2023/06/14 02:45:48;;;;;;;2.47;1.73;;;21.80;58.60;;;;;;10482646;28;20107;-69
2023/06/14 02:50:49;;;;;;;3.35;1.88;;;21.80;58.70;;;;;;10484455;28;20021;-70
2023/06/14 02:55:49;;;;;;;4.22;1.90;;;21.70;58.70;;;;;;10478262;28;20075;-69
2023/06/14 03:00:52;;;;;;;3.53;2.00;;;21.70;58.80;;;;;;10496841;28;20104;-69
2023/06/14 03:05:54;;;;;;;5.13;1.88;;;21.70;58.80;;;;;;10482684;28;20107;-69
2023/06/14 03:10:56;;;;;;;2.50;1.65;;;21.70;58.90;;;;;;10482883;28;20491;-70
2023/06/14 03:15:56;;;;;;;3.03;1.58;;;21.60;58.90;;;;;;10500237;28;20016;-70
2023/06/14 03:20:57;;;;;;;1.95;1.45;;;21.60;59.00;;;;;;10475809;28;20038;-69
2023/06/14 03:25:58;;;;;;;2.80;1.70;;;21.50;59.00;;;;;;10485643;28;20024;-69
2023/06/14 03:30:59;;;;;;;2.85;1.60;;;21.50;59.10;;;;;;10485511;28;20028;-68
2023/06/14 03:36:02;;;;;;;2.83;1.67;;;21.50;59.20;;;;;;10485685;28;20024;-68
2023/06/14 03:41:03;;;;;;;2.92;1.63;;;21.50;59.30;;;;;;10481111;28;20119;-69
2023/06/14 03:46:03;;;;;;;3.03;1.85;;;21.40;59.30;;;;;;10477184;28;20024;-68
2023/06/14 03:51:04;;;;;;;2.75;1.63;;;21.40;59.40;;;;;;10477924;28;20484;-69
2023/06/14 03:56:05;;;;;;;2.47;2.20;;;21.40;59.40;;;;;;10479397;28;20514;-69
2023/06/14 04:01:06;;;;;;;3.13;1.50;;;21.30;59.50;;;;;;10495187;28;20120;-69
2023/06/14 04:06:07;;;;;;;4.68;1.80;;;21.30;59.60;;;;;;10476892;28;20587;-68
2023/06/14 04:11:08;;;;;;;2.40;1.60;;;21.30;59.60;;;;;;10500770;28;20033;-69
2023/06/14 04:16:08;;;;;;;2.47;1.58;;;21.30;59.70;;;;;;10483504;28;20027;-69
2023/06/14 04:21:09;;;;;;;4.03;2.42;;;21.20;59.70;;;;;;10482654;28;20541;-68
2023/06/14 04:26:10;;;;;;;2.60;1.48;;;21.20;59.80;;;;;;10482177;28;20025;-68
2023/06/14 04:31:11;;;;;;;2.78;1.77;;;21.20;60.00;;;;;;10483858;28;20107;-69
2023/06/14 04:36:13;;;;;;;4.03;1.80;;;21.20;59.90;;;;;;10478663;28;20396;-69
2023/06/14 04:41:13;;;;;;;3.45;1.48;;;21.20;60.10;;;;;;10484644;28;20017;-68
2023/06/14 04:46:14;;;;;;;2.90;1.58;;;21.10;60.10;;;;;;10480698;28;20024;-68
2023/06/14 04:51:15;;;;;;;3.67;1.80;;;21.10;60.10;;;;;;10479677;28;20059;-68
2023/06/14 04:56:16;;;;;;;2.33;1.50;;;21.10;60.20;;;;;;10481082;28;20531;-69
2023/06/14 05:01:23;;;;;;;2.75;1.77;;;21.10;60.30;;;;;;10483535;28;20191;-69
2023/06/14 05:06:23;;;;;;;2.28;1.50;;;21.10;60.30;;;;;;10480106;28;20029;-69
2023/06/14 05:11:24;;;;;;;3.47;1.70;;;21.00;60.30;;;;;;10478945;28;20036;-70
2023/06/14 05:16:27;;;;;;;4.88;2.47;;;21.00;60.40;;;;;;10482158;28;20227;-71
2023/06/14 05:21:27;;;;;;;3.40;2.28;;;20.60;62.00;;;;;;10481145;28;20392;-70
2023/06/14 05:26:28;;;;;;;3.90;2.03;;;20.30;63.20;;;;;;10481958;28;20036;-70
2023/06/14 05:31:29;;;;;;;5.88;2.65;;;20.00;63.90;;;;;;10492615;28;20504;-70
2023/06/14 05:36:29;;;;;;;2.63;2.30;;;19.80;64.60;;;;;;10487235;28;20429;-70
2023/06/14 05:41:30;;;;;;;4.10;2.38;;;19.60;65.20;;;;;;10486539;28;20032;-69
2023/06/14 05:46:31;;;;;;;5.50;2.50;;;19.40;65.50;;;;;;10486646;28;20622;-71
2023/06/14 05:51:31;;;;;;;4.57;3.10;;;19.30;65.80;;;;;;10487852;28;20089;-70
2023/06/14 05:56:32;;;;;;;5.05;2.85;;;19.20;66.10;;;;;;10485314;28;20082;-69
2023/06/14 06:01:33;;;;;;;3.60;2.95;;;19.20;66.50;;;;;;10478350;28;20031;-69
2023/06/14 06:06:35;;;;;;;6.28;2.90;;;19.00;66.80;;;;;;10482992;28;20021;-70
2023/06/14 06:11:36;;;;;;;2.88;2.10;;;18.90;67.50;;;;;;10485073;28;20032;-70
2023/06/14 06:16:36;;;;;;;8.32;3.53;;;18.90;66.90;;;;;;10485287;28;20028;-69
2023/06/14 06:21:37;;;;;;;3.65;2.38;;;19.00;67.00;;;;;;10486185;28;20044;-69
2023/06/14 06:26:39;;;;;;;4.30;2.38;;;19.10;66.80;;;;;;10484692;28;20119;-69
2023/06/14 06:31:40;;;;;;;6.00;2.50;;;19.20;66.90;;;;;;10490856;28;20377;-70
2023/06/14 06:36:42;;;;;;;6.32;2.25;;;19.40;67.00;;;;;;10480536;28;20028;-70
2023/06/14 06:41:42;;;;;;;4.97;2.20;;;19.30;66.90;;;;;;10488691;28;20021;-70
2023/06/14 06:46:43;;;;;;;3.53;2.40;;;19.40;67.00;;;;;;10485655;28;20381;-69
2023/06/14 06:52:02;;;;;;;7.60;2.60;;;19.50;67.10;;;;;;10489159;28;20107;-70
2023/06/14 06:57:03;;;;;;;5.82;2.42;;;19.60;67.60;;;;;;10485720;28;20316;-70
2023/06/14 07:02:04;;;;;;;3.20;2.08;;;19.60;66.80;;;;;;10486787;28;20902;-71
2023/06/14 07:07:05;;;;;;;2.92;2.08;;;19.70;66.80;;;;;;10488340;28;20031;-70
2023/06/14 07:12:06;;;;;;;4.47;2.25;;;19.60;66.60;;;;;;10487330;28;20028;-71
2023/06/14 07:17:07;;;;;;;2.95;2.15;;;19.80;66.50;;;;;;10501498;28;20637;-70
2023/06/14 07:22:07;;;;;;;2.83;2.13;;;19.80;66.40;;;;;;10487506;28;20029;-70
2023/06/14 07:27:08;;;;;;;2.65;1.90;;;19.90;66.30;;;;;;10487361;28;20077;-70
2023/06/14 07:32:09;;;;;;;6.22;2.67;;;19.90;66.30;;;;;;10497661;28;20017;-70
2023/06/14 07:37:09;;;;;;;5.13;2.42;;;20.00;66.40;;;;;;10485451;28;20350;-71
2023/06/14 07:42:10;;;;;;;5.30;2.30;;;20.10;66.10;;;;;;10473074;28;20028;-70
2023/06/14 07:47:11;;;;;;;6.97;2.53;;;20.10;66.20;;;;;;10482466;28;20111;-70
2023/06/14 07:52:13;;;;;;;2.90;2.20;;;20.20;66.10;;;;;;10479941;28;20536;-70
2023/06/14 07:57:13;;;;;;;4.85;2.17;;;20.30;66.10;;;;;;10488298;28;20009;-70
2023/06/14 08:02:14;;;;;;;3.90;2.10;;;20.40;65.90;;;;;;10486676;28;20028;-70
2023/06/14 08:07:15;;;;;;;4.03;1.90;;;20.90;65.80;;;;;;10484214;28;20431;-71
2023/06/14 08:12:16;;;;;;;3.95;1.90;;;20.50;65.30;;;;;;10481245;28;20025;-68
2023/06/14 08:17:16;;;;;;;4.25;2.28;;;20.50;65.20;;;;;;10478646;28;20015;-70
2023/06/14 08:22:18;;;;;;;2.97;1.95;;;20.60;65.10;;;;;;10485398;28;20032;-70
2023/06/14 08:27:18;;;;;;;5.22;1.80;;;20.60;65.00;;;;;;10480464;28;20426;-69
2023/06/14 08:32:19;;;;;;;2.50;1.90;;;20.80;65.10;;;;;;10482170;28;20021;-70
2023/06/14 08:37:20;;;;;;;3.33;2.00;;;20.90;65.10;;;;;;10484029;28;20021;-70
2023/06/14 08:42:23;;;;;;;2.15;1.42;;;21.00;64.90;;;;;;10481283;28;20024;-70
2023/06/14 08:47:26;;;;;;;4.20;1.83;;;20.90;64.30;;;;;;10480623;28;20017;-70
2023/06/14 08:52:30;;;;;;;3.25;2.20;;;21.00;63.80;;;;;;10482420;28;20020;-70
2023/06/14 08:57:31;;;;;;;2.58;1.70;;;21.00;63.80;;;;;;10484435;28;20440;-70
2023/06/14 09:02:35;;;;;;;2.85;1.70;;;21.10;63.60;;;;;;10494133;28;20036;-70
2023/06/14 09:07:38;;;;;;;4.18;1.70;;;21.10;63.70;;;;;;10495681;28;20052;-70
2023/06/14 09:12:39;;;;;;;3.72;1.80;;;21.20;64.00;;;;;;10478859;28;20079;-70
2023/06/14 09:17:42;;;;;;;6.70;2.17;;;21.30;63.20;;;;;;10496157;28;20044;-70
2023/06/14 09:27:47;;;;;;;2.08;1.70;;;21.60;62.80;;;;;;10427672;28;20049;-65
2023/06/14 09:32:47;;;;;;;3.03;1.65;;;21.60;62.50;;;;;;10438275;28;20041;-68
2023/06/14 09:37:48;;;;;;;2.00;1.80;;;21.60;62.40;;;;;;10420440;28;20024;-69
2023/06/14 09:42:49;;;;;;;5.25;1.75;;;21.70;62.50;;;;;;10434100;28;20009;-74
2023/06/14 09:47:51;;;;;;;4.50;1.77;;;21.80;62.00;;;;;;10427319;28;20025;-67
2023/06/14 09:52:56;;;;;;;2.33;1.50;;;21.80;61.30;;;;;;10428202;28;20032;-67
2023/06/14 09:57:59;;;;;;;3.80;1.90;;;21.80;61.10;;;;;;10429726;28;20403;-69
2023/06/14 10:03:16;;;;;;;3.72;1.40;;;22.10;60.90;;;;;;10433550;28;20090;-68
2023/06/14 10:08:22;;;;;;;2.33;1.50;;;22.00;60.70;;;;;;10440244;28;20044;-66
2023/06/14 10:13:23;;;;;;;1.75;1.50;;;22.10;60.80;;;;;;10432552;28;20495;-68
2023/06/14 10:18:27;;;;;;;2.33;1.20;;;22.20;61.50;;;;;;10438987;28;20431;-70
2023/06/14 10:23:30;;;;;;;2.55;1.20;;;22.30;60.50;;;;;;10440926;28;20052;-69
2023/06/14 10:28:32;;;;;;;3.45;1.55;;;22.40;59.50;;;;;;10443540;28;20048;-68
2023/06/14 10:33:48;;;;;;;2.88;1.20;;;22.40;59.50;;;;;;10439547;28;20050;-66
2023/06/14 10:39:02;;;;;;;2.22;1.30;;;22.40;59.30;;;;;;10434188;28;20021;-66
2023/06/14 10:44:15;;;;;;;4.25;1.30;;;22.40;59.30;;;;;;10435931;28;20021;-69
2023/06/14 10:49:19;;;;;;;2.00;1.08;;;22.60;58.00;;;;;;10440969;28;20490;-68
2023/06/14 10:54:20;;;;;;;2.05;1.33;;;22.70;58.50;;;;;;10429861;28;20029;-68
2023/06/14 10:59:21;;;;;;;1.58;1.30;;;22.90;58.50;;;;;;10426639;28;20400;-70
2023/06/14 11:04:46;;;;;;;4.60;1.30;;;22.90;58.00;;;;;;10442385;28;20021;-69
2023/06/14 11:09:59;;;;;;;3.33;1.30;;;23.00;57.00;;;;;;10434873;28;20037;-67
2023/06/14 11:15:00;;;;;;;6.78;1.73;;;23.00;57.90;;;;;;10431131;28;21146;-68
2023/06/14 11:20:16;;;;;;;1.58;1.10;;;23.10;57.90;;;;;;10434671;28;20022;-70
2023/06/14 11:25:17;;;;;;;6.00;1.33;;;23.20;57.70;;;;;;10435264;28;20480;-70
2023/06/14 11:30:18;;;;;;;3.10;1.27;;;23.10;57.70;;;;;;10434827;28;20070;-69
2023/06/14 11:35:23;;;;;;;1.55;1.15;;;23.30;57.00;;;;;;10437513;28;20100;-68
2023/06/14 11:40:24;;;;;;;3.17;1.38;;;23.30;57.20;;;;;;10438358;28;20021;-70
2023/06/14 11:45:32;;;;;;;3.00;1.50;;;23.40;57.80;;;;;;10438656;28;20488;-68
2023/06/14 11:50:38;;;;;;;2.15;1.40;;;23.60;56.50;;;;;;10433310;28;20039;-68
2023/06/14 11:55:40;;;;;;;1.75;1.45;;;23.60;56.00;;;;;;10438283;28;20198;-68
2023/06/14 12:00:41;;;;;;;2.10;1.50;;;23.50;56.00;;;;;;10430352;28;20527;-67
2023/06/14 12:05:43;;;;;;;2.72;1.60;;;23.60;54.80;;;;;;10433752;28;20396;-67
2023/06/14 12:10:44;;;;;;;2.55;1.45;;;23.60;55.20;;;;;;10430340;28;20473;-69
2023/06/14 12:15:44;;;;;;;3.05;1.48;;;23.70;55.50;;;;;;10436437;28;20041;-69
2023/06/14 12:20:50;;;;;;;3.58;1.70;;;23.90;55.00;;;;;;10431112;28;20041;-67
2023/06/14 12:25:51;;;;;;;4.03;1.50;;;24.00;55.60;;;;;;10433926;28;20037;-67
2023/06/14 12:30:52;;;;;;;2.53;1.40;;;24.00;55.90;;;;;;10446533;28;20481;-68
2023/06/14 12:35:56;;;;;;;2.55;1.45;;;24.10;55.40;;;;;;10446353;28;20047;-68
2023/06/14 12:40:57;;;;;;;1.83;1.55;;;24.10;55.70;;;;;;10435820;28;20021;-68
2023/06/14 12:45:58;;;;;;;2.25;1.63;;;24.20;56.00;;;;;;10431431;28;20051;-68
2023/06/14 12:50:58;;;;;;;2.63;1.30;;;24.40;56.10;;;;;;10439575;28;20400;-68
2023/06/14 12:55:59;;;;;;;3.42;1.58;;;24.60;56.20;;;;;;10439112;28;20028;-67
2023/06/14 13:01:00;;;;;;;3.05;1.60;;;24.80;55.90;;;;;;10432606;28;20017;-68
2023/06/14 13:06:01;;;;;;;2.83;1.50;;;24.90;56.00;;;;;;10433824;28;20029;-67
2023/06/14 13:11:02;;;;;;;3.15;1.48;;;25.00;55.80;;;;;;10424574;28;20404;-67
2023/06/14 13:16:03;;;;;;;2.45;1.50;;;25.00;55.80;;;;;;10433267;28;20029;-67
2023/06/14 13:21:04;;;;;;;2.40;1.60;;;25.10;56.00;;;;;;10435575;28;20434;-66
2023/06/14 13:26:04;;;;;;;3.40;1.50;;;25.00;56.40;;;;;;10426261;28;20043;-65
2023/06/14 13:31:05;;;;;;;2.25;1.40;;;24.90;56.70;;;;;;10436183;28;20025;-66
2023/06/14 13:36:06;;;;;;;1.92;1.48;;;24.90;56.90;;;;;;10433012;28;20036;-67
2023/06/14 13:41:06;;;;;;;2.88;1.67;;;24.90;57.00;;;;;;10439338;28;20422;-68
2023/06/14 13:46:07;;;;;;;4.30;1.58;;;25.00;57.00;;;;;;10431473;28;20025;-68
2023/06/14 13:51:07;;;;;;;1.92;1.42;;;25.00;57.20;;;;;;10444974;28;20435;-68
2023/06/14 13:56:08;;;;;;;3.28;1.50;;;25.00;57.20;;;;;;10446125;28;20036;-68
2023/06/14 14:01:09;;;;;;;2.90;1.40;;;25.10;57.20;;;;;;10445948;28;20017;-68
2023/06/14 14:06:09;;;;;;;3.20;1.40;;;25.20;57.30;;;;;;10440504;28;20060;-67
2023/06/14 14:11:16;;;;;;;2.28;1.30;;;25.20;57.40;;;;;;10439295;28;20029;-67
2023/06/14 14:16:17;;;;;;;2.30;1.30;;;25.30;57.40;;;;;;10441853;28;20100;-68
2023/06/14 14:21:18;;;;;;;1.50;1.20;;;25.40;57.40;;;;;;10442990;28;20032;-68
2023/06/14 14:26:18;;;;;;;3.45;1.35;;;25.50;57.30;;;;;;10434000;28;20312;-67
2023/06/14 14:31:19;;;;;;;2.58;1.38;;;25.50;57.30;;;;;;10442691;28;20033;-69
2023/06/14 14:36:20;;;;;;;1.88;1.40;;;25.60;57.30;;;;;;10441161;28;20104;-68
2023/06/14 14:41:21;;;;;;;3.50;1.70;;;25.70;57.40;;;;;;10441431;28;20115;-73
2023/06/14 14:46:21;;;;;;;4.22;1.40;;;25.80;57.40;;;;;;10443612;28;20733;-65
2023/06/14 14:51:22;;;;;;;1.40;1.10;;;25.90;57.30;;;;;;10444842;28;20037;-65
2023/06/14 14:56:22;;;;;;;1.83;1.30;;;26.00;57.40;;;;;;10442854;28;20028;-65
2023/06/14 15:01:23;;;;;;;1.80;1.33;;;26.10;57.30;;;;;;10435902;28;20056;-65
2023/06/14 15:06:24;;;;;;;2.08;1.35;;;26.20;57.20;;;;;;10441476;28;20033;-68
2023/06/14 15:11:25;;;;;;;3.15;1.45;;;26.30;57.20;;;;;;10442392;28;20029;-67
2023/06/14 15:16:25;;;;;;;3.10;1.50;;;26.40;57.20;;;;;;10437043;28;20133;-66
2023/06/14 15:21:26;;;;;;;2.30;1.30;;;26.50;57.00;;;;;;10435370;28;20119;-65
2023/06/14 15:26:27;;;;;;;2.10;1.58;;;26.50;56.40;;;;;;10486059;22;20049;-72
2023/06/14 15:31:28;;;;;;;2.10;1.50;;;26.70;56.00;;;;;;10479480;28;20065;-74
2023/06/14 15:36:29;;;;;;;1.92;1.50;;;26.60;55.50;;;;;;10459308;28;20490;-72
2023/06/14 15:41:30;;;;;;;2.65;1.30;;;26.50;54.50;;;;;;10440139;28;20328;-73
2023/06/14 15:46:30;;;;;;;3.20;1.45;;;26.20;54.50;;;;;;10443265;28;20049;-74
2023/06/14 15:51:31;;;;;;;2.50;1.70;;;26.20;55.00;;;;;;10446410;28;20277;-75
2023/06/14 15:56:32;;;;;;;2.38;1.50;;;26.20;55.10;;;;;;10452636;28;20116;-74
2023/06/14 16:01:33;;;;;;;3.42;1.70;;;26.20;55.10;;;;;;10433742;28;20028;-72
2023/06/14 16:06:35;;;;;;;3.13;1.70;;;26.10;55.00;;;;;;10445572;28;20025;-75
2023/06/14 16:11:36;;;;;;;2.67;1.50;;;25.80;55.30;;;;;;10444380;28;20083;-73
2023/06/14 16:16:37;;;;;;;3.10;1.80;;;25.70;55.10;;;;;;10454870;28;20557;-74
2023/06/14 16:21:37;;;;;;;2.67;1.55;;;25.60;55.20;;;;;;10447840;28;20033;-74
2023/06/14 16:26:38;;;;;;;2.72;1.50;;;25.50;55.10;;;;;;10450589;28;20026;-74
2023/06/14 16:31:39;;;;;;;2.88;1.60;;;25.40;55.40;;;;;;10448287;28;20501;-73
2023/06/14 16:36:40;;;;;;;3.45;1.92;;;25.30;55.80;;;;;;10435159;28;20409;-74
2023/06/14 16:41:40;;;;;;;2.22;1.70;;;25.30;55.60;;;;;;10450287;28;20031;-75
2023/06/14 16:46:41;;;;;;;1.80;1.50;;;25.30;55.40;;;;;;10442736;28;20373;-74
2023/06/14 16:51:41;;;;;;;4.60;1.75;;;25.20;55.00;;;;;;10444954;28;20033;-73
2023/06/14 16:56:42;;;;;;;3.53;1.65;;;25.20;55.10;;;;;;10442323;28;20024;-73
2023/06/14 17:01:43;;;;;;;2.58;1.92;;;25.20;55.30;;;;;;10444256;28;20508;-74
2023/06/14 17:06:43;;;;;;;2.33;1.60;;;25.10;55.50;;;;;;10455964;28;20032;-75
2023/06/14 17:11:44;;;;;;;5.35;2.28;;;25.00;55.70;;;;;;10430931;28;20087;-74
2023/06/14 17:16:44;;;;;;;11.55;2.35;;;25.00;55.80;;;;;;10439293;28;20031;-73
2023/06/14 17:21:49;;;;;;;3.25;2.10;;;25.00;55.70;;;;;;10447991;28;20017;-75
2023/06/14 17:26:50;;;;;;;4.28;1.92;;;24.90;55.60;;;;;;10443617;28;20033;-75
2023/06/14 17:31:51;;;;;;;2.50;1.92;;;24.90;55.50;;;;;;10443173;28;20016;-76
2023/06/14 17:36:52;;;;;;;3.00;2.10;;;24.90;56.20;;;;;;10442222;28;20098;-71
2023/06/14 17:41:52;;;;;;;3.92;1.83;;;24.80;56.10;;;;;;10441422;28;20450;-75
2023/06/14 17:46:53;;;;;;;4.95;1.95;;;24.80;55.80;;;;;;10434356;28;20013;-75
2023/06/14 17:51:54;;;;;;;3.53;2.00;;;24.70;55.30;;;;;;10440689;28;20087;-74
2023/06/14 17:56:55;;;;;;;3.08;1.80;;;24.70;55.30;;;;;;10446052;28;20041;-74
2023/06/14 18:01:55;;;;;;;8.57;2.03;;;24.60;55.40;;;;;;10429326;28;20104;-73
2023/06/14 18:06:56;;;;;;;3.35;2.05;;;24.60;55.40;;;;;;10443488;28;20104;-73
2023/06/14 18:11:57;;;;;;;2.47;1.88;;;24.60;55.60;;;;;;10441072;28;20025;-73
2023/06/14 18:16:59;;;;;;;3.05;2.17;;;24.50;55.90;;;;;;10445030;28;20028;-73
2023/06/14 18:21:59;;;;;;;3.35;2.30;;;24.50;56.10;;;;;;10454571;28;20021;-74
2023/06/14 18:27:01;;;;;;;2.63;2.10;;;24.50;56.30;;;;;;10443087;28;20037;-74
2023/06/14 18:32:02;;;;;;;6.32;2.30;;;24.30;56.30;;;;;;10425197;28;20465;-74
2023/06/14 18:37:03;;;;;;;3.75;2.33;;;24.30;56.30;;;;;;10446753;28;20428;-73
2023/06/14 18:42:05;;;;;;;2.58;1.98;;;24.30;56.40;;;;;;10451547;28;20054;-70
2023/06/14 18:47:06;;;;;;;6.07;2.70;;;24.20;56.50;;;;;;10446105;28;20021;-73
2023/06/14 18:52:09;;;;;;;2.50;2.22;;;24.20;56.60;;;;;;10453652;28;20501;-74
2023/06/14 18:57:11;;;;;;;2.78;2.20;;;24.10;56.70;;;;;;10457195;28;20017;-73
2023/06/14 19:02:11;;;;;;;3.58;2.35;;;24.10;56.90;;;;;;10452113;28;20024;-73
2023/06/14 19:07:12;;;;;;;6.80;2.30;;;24.00;57.00;;;;;;10458841;28;20423;-72
2023/06/14 19:12:13;;;;;;;5.15;2.28;;;24.00;57.20;;;;;;10448265;28;20036;-73
2023/06/14 19:17:13;;;;;;;2.40;2.15;;;23.90;57.40;;;;;;10455696;28;20124;-72
2023/06/14 19:22:14;;;;;;;4.07;2.20;;;23.80;57.60;;;;;;10458284;28;20033;-72
2023/06/14 19:27:15;;;;;;;36.42;4.65;;;23.80;57.80;;;;;;10450020;28;20396;-73
2023/06/14 19:32:15;;;;;;;18.15;3.33;;;23.80;58.80;;;;;;10450575;28;20163;-73
2023/06/14 19:37:16;;;;;;;8.45;2.63;;;23.70;58.40;;;;;;10455608;28;20025;-74
2023/06/14 19:42:16;;;;;;;5.57;2.40;;;23.60;58.70;;;;;;10440777;28;20100;-74
2023/06/14 19:47:17;;;;;;;3.25;2.70;;;23.40;59.20;;;;;;10452635;28;20036;-73
2023/06/14 19:52:18;;;;;;;3.65;2.65;;;23.30;59.40;;;;;;10460203;28;20025;-72
2023/06/14 19:57:18;;;;;;;3.92;2.50;;;23.20;59.60;;;;;;10448327;28;20019;-74
2023/06/14 20:02:19;;;;;;;2.85;2.40;;;23.10;59.70;;;;;;10447824;28;20078;-73
2023/06/14 20:07:20;;;;;;;5.90;3.08;;;22.90;59.80;;;;;;10451359;28;20021;-73
2023/06/14 20:12:21;;;;;;;4.40;2.42;;;22.70;60.10;;;;;;10446023;28;20417;-70
2023/06/14 20:17:23;;;;;;;8.23;2.75;;;22.70;60.30;;;;;;10439003;28;20326;-69
2023/06/14 20:22:23;;;;;;;9.93;2.65;;;22.90;60.20;;;;;;10425390;28;20059;-69
2023/06/14 20:27:24;;;;;;;6.78;2.97;;;23.10;60.00;;;;;;10422237;28;20123;-69
2023/06/14 20:32:26;;;;;;;4.75;2.50;;;23.20;59.80;;;;;;10429312;28;20021;-69
2023/06/14 20:37:27;;;;;;;4.05;2.60;;;23.20;59.70;;;;;;10423843;28;20054;-69
2023/06/14 20:42:29;;;;;;;3.33;2.38;;;23.40;59.70;;;;;;10425933;28;20046;-69
2023/06/14 20:47:30;;;;;;;6.45;2.67;;;23.50;59.80;;;;;;10428232;28;20021;-69
2023/06/14 20:52:30;;;;;;;4.53;2.50;;;23.50;59.90;;;;;;10427154;28;20024;-68
2023/06/14 20:57:31;;;;;;;3.97;2.42;;;23.60;59.90;;;;;;10429866;28;20036;-69
2023/06/14 21:02:31;;;;;;;3.38;2.50;;;23.50;59.90;;;;;;10429581;28;20467;-70
2023/06/14 21:07:32;;;;;;;3.50;2.00;;;23.60;60.00;;;;;;10428303;28;20036;-69
2023/06/14 21:12:33;;;;;;;2.63;2.13;;;23.60;60.10;;;;;;10429783;28;20040;-69
2023/06/14 21:17:33;;;;;;;3.90;2.17;;;23.60;60.30;;;;;;10421236;28;20033;-70
2023/06/14 21:22:36;;;;;;;5.38;2.63;;;23.60;60.30;;;;;;10435042;28;20036;-70
2023/06/14 21:27:36;;;;;;;3.28;2.22;;;23.60;60.50;;;;;;10436547;28;20076;-70
2023/06/14 21:32:39;;;;;;;3.38;2.22;;;23.50;60.40;;;;;;10429486;28;20119;-69
2023/06/14 21:37:40;;;;;;;2.55;2.00;;;23.50;60.50;;;;;;10425139;28;20055;-70
2023/06/14 21:42:40;;;;;;;2.58;2.10;;;23.50;60.70;;;;;;10427857;28;20096;-70
2023/06/14 21:47:41;;;;;;;4.07;2.40;;;23.50;60.80;;;;;;10425602;28;20033;-69
2023/06/14 21:52:41;;;;;;;2.63;2.13;;;23.40;60.80;;;;;;10440533;28;20120;-69
2023/06/14 21:57:42;;;;;;;5.13;2.20;;;23.40;60.90;;;;;;10439419;28;20449;-69
2023/06/14 22:02:43;;;;;;;2.83;2.05;;;23.40;61.00;;;;;;10433373;28;20029;-69
2023/06/14 22:07:44;;;;;;;2.88;2.00;;;23.40;61.10;;;;;;10432203;28;20032;-69
2023/06/14 22:12:45;;;;;;;2.90;2.10;;;23.30;61.20;;;;;;10430733;28;20037;-69
2023/06/14 22:17:46;;;;;;;2.90;2.03;;;23.30;61.30;;;;;;10441801;28;20127;-69
2023/06/14 22:22:47;;;;;;;2.22;2.03;;;23.30;61.50;;;;;;10444528;28;20115;-69
2023/06/14 22:27:48;;;;;;;3.65;2.40;;;23.30;61.50;;;;;;10440704;28;20124;-69
2023/06/14 22:32:50;;;;;;;3.83;2.20;;;23.20;61.50;;;;;;10426922;28;20173;-69
2023/06/14 22:37:51;;;;;;;4.22;2.17;;;23.20;61.50;;;;;;10429085;28;20049;-69
2023/06/14 22:42:52;;;;;;;2.38;1.70;;;23.20;61.60;;;;;;10440842;28;20294;-70
2023/06/14 22:47:53;;;;;;;4.55;2.03;;;23.20;61.70;;;;;;10438656;28;20021;-69
2023/06/14 22:52:54;;;;;;;3.05;2.00;;;23.10;61.80;;;;;;10440769;28;20021;-69
2023/06/14 22:57:54;;;;;;;4.60;2.13;;;23.10;61.80;;;;;;10449818;28;20035;-69
2023/06/14 23:02:56;;;;;;;3.70;1.98;;;23.10;61.90;;;;;;10436559;28;20559;-69
2023/06/14 23:07:57;;;;;;;5.32;2.20;;;23.00;61.90;;;;;;10442539;28;20018;-69
2023/06/14 23:12:58;;;;;;;2.75;1.83;;;23.00;62.00;;;;;;10447910;28;20029;-69
2023/06/14 23:17:59;;;;;;;2.97;1.98;;;23.00;62.00;;;;;;10445630;28;20486;-69
2023/06/14 23:23:03;;;;;;;4.00;2.25;;;23.00;62.10;;;;;;10448250;28;20052;-70
2023/06/14 23:28:07;;;;;;;2.28;1.90;;;22.90;62.20;;;;;;10441447;28;20489;-69
2023/06/14 23:33:08;;;;;;;3.17;2.17;;;22.90;62.20;;;;;;10451195;28;20060;-69
2023/06/14 23:38:12;;;;;;;5.22;1.90;;;22.80;62.20;;;;;;10455513;28;20031;-69
2023/06/14 23:43:14;;;;;;;3.03;1.70;;;22.80;62.30;;;;;;10444364;28;20033;-69
2023/06/14 23:48:14;;;;;;;2.05;1.70;;;22.80;62.40;;;;;;10440916;28;20040;-69
2023/06/14 23:53:15;;;;;;;3.15;2.28;;;22.70;62.40;;;;;;10436917;28;20104;-69
2023/06/14 23:58:16;;;;;;;3.13;1.92;;;22.70;62.40;;;;;;10447979;28;20028;-69
